sensor_id;sensor_type;location;lat;lon;timestamp;P1;durP1;ratioP1;P2;durP2;ratioP2
3789;SDS011;1910;49.042;9.028;2022-11-20T00:01:43;19.60;;;9.00;;
3789;SDS011;1910;49.042;9.028;2022-11-20T00:04:10;17.63;;;10.47;;
3789;SDS011;1910;49.042;9.028;2022-11-20T00:06:37;17.83;;;9.65;;
3789;SDS011;1910;49.042;9.028;2022-11-20T00:09:02;16.90;;;9.23;;
3789;SDS011;1910;49.042;9.028;2022-11-20T00:11:30;17.60;;;9.45;;
3789;SDS011;1910;49.042;9.028;2022-11-20T00:13:59;19.35;;;9.73;;
3789;SDS011;1910;49.042;9.028;2022-11-20T00:16:27;21.30;;;11.40;;
3789;SDS011;1910;49.042;9.028;2022-11-20T00:18:53;20.73;;;11.45;;
3789;SDS011;1910;49.042;9.028;2022-11-20T00:21:20;24.67;;;11.75;;
3789;SDS011;1910;49.042;9.028;2022-11-20T00:23:48;27.38;;;11.63;;
3789;SDS011;1910;49.042;9.028;2022-11-20T00:26:15;25.95;;;12.13;;
3789;SDS011;1910;49.042;9.028;2022-11-20T00:28:42;28.00;;;13.95;;
3789;SDS011;1910;49.042;9.028;2022-11-20T00:31:12;24.35;;;13.45;;
3789;SDS011;1910;49.042;9.028;2022-11-20T00:33:39;24.85;;;13.90;;
3789;SDS011;1910;49.042;9.028;2022-11-20T00:36:06;42.17;;;16.38;;
3789;SDS011;1910;49.042;9.028;2022-11-20T00:38:33;19.27;;;11.00;;
3789;SDS011;1910;49.042;9.028;2022-11-20T00:41:00;25.25;;;11.93;;
3789;SDS011;1910;49.042;9.028;2022-11-20T00:43:28;22.30;;;12.68;;
3789;SDS011;1910;49.042;9.028;2022-11-20T00:46:01;25.10;;;11.13;;
3789;SDS011;1910;49.042;9.028;2022-11-20T00:48:31;23.30;;;11.60;;
3789;SDS011;1910;49.042;9.028;2022-11-20T00:50:57;26.50;;;11.70;;
3789;SDS011;1910;49.042;9.028;2022-11-20T00:53:23;25.50;;;11.07;;
3789;SDS011;1910;49.042;9.028;2022-11-20T00:56:00;21.67;;;11.30;;
3789;SDS011;1910;49.042;9.028;2022-11-20T00:58:29;23.05;;;11.70;;
3789;SDS011;1910;49.042;9.028;2022-11-20T01:01:10;27.27;;;12.98;;
3789;SDS011;1910;49.042;9.028;2022-11-20T01:03:41;25.55;;;11.73;;
3789;SDS011;1910;49.042;9.028;2022-11-20T01:06:10;29.65;;;12.07;;
3789;SDS011;1910;49.042;9.028;2022-11-20T01:08:46;32.70;;;12.75;;
3789;SDS011;1910;49.042;9.028;2022-11-20T01:11:17;22.33;;;10.88;;
3789;SDS011;1910;49.042;9.028;2022-11-20T01:13:45;23.83;;;11.95;;
3789;SDS011;1910;49.042;9.028;2022-11-20T01:16:16;27.98;;;12.98;;
3789;SDS011;1910;49.042;9.028;2022-11-20T01:18:44;25.48;;;12.52;;
3789;SDS011;1910;49.042;9.028;2022-11-20T01:21:15;28.00;;;13.43;;
3789;SDS011;1910;49.042;9.028;2022-11-20T01:23:41;25.90;;;12.98;;
3789;SDS011;1910;49.042;9.028;2022-11-20T01:26:12;27.90;;;13.02;;
3789;SDS011;1910;49.042;9.028;2022-11-20T01:28:40;28.27;;;12.38;;
3789;SDS011;1910;49.042;9.028;2022-11-20T01:33:44;28.50;;;13.60;;
3789;SDS011;1910;49.042;9.028;2022-11-20T01:36:10;25.52;;;12.25;;
3789;SDS011;1910;49.042;9.028;2022-11-20T01:38:38;23.15;;;11.70;;
3789;SDS011;1910;49.042;9.028;2022-11-20T01:41:03;29.52;;;12.20;;
3789;SDS011;1910;49.042;9.028;2022-11-20T01:43:30;34.08;;;13.85;;
3789;SDS011;1910;49.042;9.028;2022-11-20T01:46:18;23.80;;;12.32;;
3789;SDS011;1910;49.042;9.028;2022-11-20T01:51:26;28.42;;;15.02;;
3789;SDS011;1910;49.042;9.028;2022-11-20T01:54:13;26.35;;;13.63;;
3789;SDS011;1910;49.042;9.028;2022-11-20T01:56:54;27.08;;;13.55;;
3789;SDS011;1910;49.042;9.028;2022-11-20T01:59:22;28.27;;;12.20;;
3789;SDS011;1910;49.042;9.028;2022-11-20T02:01:49;21.05;;;12.25;;
3789;SDS011;1910;49.042;9.028;2022-11-20T02:04:15;21.07;;;11.30;;
3789;SDS011;1910;49.042;9.028;2022-11-20T02:06:42;15.52;;;8.95;;
3789;SDS011;1910;49.042;9.028;2022-11-20T02:09:18;19.90;;;11.15;;
3789;SDS011;1910;49.042;9.028;2022-11-20T02:11:44;25.83;;;14.20;;
3789;SDS011;1910;49.042;9.028;2022-11-20T02:14:10;18.93;;;10.50;;
3789;SDS011;1910;49.042;9.028;2022-11-20T02:16:37;22.60;;;9.80;;
3789;SDS011;1910;49.042;9.028;2022-11-20T02:19:12;22.58;;;12.15;;
3789;SDS011;1910;49.042;9.028;2022-11-20T02:24:37;22.02;;;10.32;;
3789;SDS011;1910;49.042;9.028;2022-11-20T02:27:05;14.10;;;8.73;;
3789;SDS011;1910;49.042;9.028;2022-11-20T02:29:36;14.02;;;9.25;;
3789;SDS011;1910;49.042;9.028;2022-11-20T02:32:04;10.50;;;7.20;;
3789;SDS011;1910;49.042;9.028;2022-11-20T02:34:30;15.85;;;8.00;;
3789;SDS011;1910;49.042;9.028;2022-11-20T02:36:56;20.77;;;9.65;;
3789;SDS011;1910;49.042;9.028;2022-11-20T02:39:24;14.50;;;9.13;;
3789;SDS011;1910;49.042;9.028;2022-11-20T02:41:52;16.88;;;8.85;;
3789;SDS011;1910;49.042;9.028;2022-11-20T02:44:19;19.88;;;9.27;;
3789;SDS011;1910;49.042;9.028;2022-11-20T02:46:45;13.03;;;7.33;;
3789;SDS011;1910;49.042;9.028;2022-11-20T02:49:10;18.20;;;9.02;;
3789;SDS011;1910;49.042;9.028;2022-11-20T02:51:36;18.80;;;8.88;;
3789;SDS011;1910;49.042;9.028;2022-11-20T02:54:02;13.20;;;7.50;;
3789;SDS011;1910;49.042;9.028;2022-11-20T02:56:28;14.23;;;8.83;;
3789;SDS011;1910;49.042;9.028;2022-11-20T02:58:55;11.73;;;7.60;;
3789;SDS011;1910;49.042;9.028;2022-11-20T03:01:21;16.67;;;9.23;;
3789;SDS011;1910;49.042;9.028;2022-11-20T03:03:47;12.48;;;8.65;;
3789;SDS011;1910;49.042;9.028;2022-11-20T03:06:17;14.63;;;8.02;;
3789;SDS011;1910;49.042;9.028;2022-11-20T03:08:43;18.30;;;9.80;;
3789;SDS011;1910;49.042;9.028;2022-11-20T03:11:09;12.40;;;8.10;;
3789;SDS011;1910;49.042;9.028;2022-11-20T03:13:35;13.88;;;8.38;;
3789;SDS011;1910;49.042;9.028;2022-11-20T03:16:08;14.90;;;8.67;;
3789;SDS011;1910;49.042;9.028;2022-11-20T03:18:42;10.77;;;7.15;;
3789;SDS011;1910;49.042;9.028;2022-11-20T03:21:08;13.73;;;8.10;;
3789;SDS011;1910;49.042;9.028;2022-11-20T03:23:35;11.18;;;7.57;;
3789;SDS011;1910;49.042;9.028;2022-11-20T03:26:21;15.18;;;7.55;;
3789;SDS011;1910;49.042;9.028;2022-11-20T03:28:52;11.00;;;6.63;;
3789;SDS011;1910;49.042;9.028;2022-11-20T03:31:20;13.40;;;8.38;;
3789;SDS011;1910;49.042;9.028;2022-11-20T03:33:48;9.05;;;6.15;;
3789;SDS011;1910;49.042;9.028;2022-11-20T03:36:14;12.23;;;7.43;;
3789;SDS011;1910;49.042;9.028;2022-11-20T03:38:41;12.65;;;6.30;;
3789;SDS011;1910;49.042;9.028;2022-11-20T03:41:08;11.97;;;6.20;;
3789;SDS011;1910;49.042;9.028;2022-11-20T03:43:35;11.35;;;6.88;;
3789;SDS011;1910;49.042;9.028;2022-11-20T03:46:02;9.48;;;7.00;;
3789;SDS011;1910;49.042;9.028;2022-11-20T03:48:28;14.25;;;7.03;;
3789;SDS011;1910;49.042;9.028;2022-11-20T03:51:16;11.83;;;5.40;;
3789;SDS011;1910;49.042;9.028;2022-11-20T03:53:42;9.88;;;5.70;;
3789;SDS011;1910;49.042;9.028;2022-11-20T03:56:09;11.70;;;4.72;;
3789;SDS011;1910;49.042;9.028;2022-11-20T03:58:35;7.38;;;5.65;;
3789;SDS011;1910;49.042;9.028;2022-11-20T04:03:34;10.52;;;5.95;;
3789;SDS011;1910;49.042;9.028;2022-11-20T04:06:02;11.43;;;6.38;;
3789;SDS011;1910;49.042;9.028;2022-11-20T04:08:32;13.57;;;5.85;;
3789;SDS011;1910;49.042;9.028;2022-11-20T04:13:58;8.68;;;4.68;;
3789;SDS011;1910;49.042;9.028;2022-11-20T04:16:25;8.25;;;5.82;;
3789;SDS011;1910;49.042;9.028;2022-11-20T04:18:54;7.95;;;6.50;;
3789;SDS011;1910;49.042;9.028;2022-11-20T04:21:21;11.95;;;5.45;;
3789;SDS011;1910;49.042;9.028;2022-11-20T04:23:48;11.77;;;6.97;;
3789;SDS011;1910;49.042;9.028;2022-11-20T04:26:14;11.38;;;5.00;;
3789;SDS011;1910;49.042;9.028;2022-11-20T04:28:40;7.07;;;5.35;;
3789;SDS011;1910;49.042;9.028;2022-11-20T04:33:32;6.20;;;3.47;;
3789;SDS011;1910;49.042;9.028;2022-11-20T04:36:02;8.02;;;4.80;;
3789;SDS011;1910;49.042;9.028;2022-11-20T04:38:35;6.60;;;4.38;;
3789;SDS011;1910;49.042;9.028;2022-11-20T04:41:01;6.27;;;4.40;;
3789;SDS011;1910;49.042;9.028;2022-11-20T04:43:28;8.52;;;4.90;;
3789;SDS011;1910;49.042;9.028;2022-11-20T04:45:55;8.02;;;5.03;;
3789;SDS011;1910;49.042;9.028;2022-11-20T04:48:24;9.60;;;5.78;;
3789;SDS011;1910;49.042;9.028;2022-11-20T04:50:52;6.30;;;5.03;;
3789;SDS011;1910;49.042;9.028;2022-11-20T04:53:18;8.18;;;4.60;;
3789;SDS011;1910;49.042;9.028;2022-11-20T04:55:45;7.40;;;4.80;;
3789;SDS011;1910;49.042;9.028;2022-11-20T04:58:11;6.22;;;4.68;;
3789;SDS011;1910;49.042;9.028;2022-11-20T05:00:37;8.52;;;4.88;;
3789;SDS011;1910;49.042;9.028;2022-11-20T05:03:03;8.98;;;4.57;;
3789;SDS011;1910;49.042;9.028;2022-11-20T05:05:29;7.70;;;4.10;;
3789;SDS011;1910;49.042;9.028;2022-11-20T05:07:56;13.67;;;5.30;;
3789;SDS011;1910;49.042;9.028;2022-11-20T05:10:22;7.60;;;4.43;;
3789;SDS011;1910;49.042;9.028;2022-11-20T05:12:48;5.55;;;4.05;;
3789;SDS011;1910;49.042;9.028;2022-11-20T05:15:14;6.77;;;3.77;;
3789;SDS011;1910;49.042;9.028;2022-11-20T05:17:40;8.27;;;4.53;;
3789;SDS011;1910;49.042;9.028;2022-11-20T05:20:06;8.17;;;3.60;;
3789;SDS011;1910;49.042;9.028;2022-11-20T05:22:33;4.43;;;3.50;;
3789;SDS011;1910;49.042;9.028;2022-11-20T05:25:00;5.20;;;3.53;;
3789;SDS011;1910;49.042;9.028;2022-11-20T05:27:25;7.45;;;3.60;;
3789;SDS011;1910;49.042;9.028;2022-11-20T05:29:51;6.90;;;4.10;;
3789;SDS011;1910;49.042;9.028;2022-11-20T05:32:17;9.50;;;4.00;;
3789;SDS011;1910;49.042;9.028;2022-11-20T05:34:43;4.60;;;2.63;;
3789;SDS011;1910;49.042;9.028;2022-11-20T05:37:09;12.83;;;3.30;;
3789;SDS011;1910;49.042;9.028;2022-11-20T05:39:35;6.93;;;4.20;;
3789;SDS011;1910;49.042;9.028;2022-11-20T05:42:01;7.10;;;3.50;;
3789;SDS011;1910;49.042;9.028;2022-11-20T05:44:45;10.10;;;3.75;;
3789;SDS011;1910;49.042;9.028;2022-11-20T05:47:11;9.30;;;3.60;;
3789;SDS011;1910;49.042;9.028;2022-11-20T05:49:37;2.90;;;2.13;;
3789;SDS011;1910;49.042;9.028;2022-11-20T05:52:03;5.10;;;2.88;;
3789;SDS011;1910;49.042;9.028;2022-11-20T05:54:29;9.40;;;3.77;;
3789;SDS011;1910;49.042;9.028;2022-11-20T05:56:55;5.03;;;2.83;;
3789;SDS011;1910;49.042;9.028;2022-11-20T05:59:20;7.90;;;3.30;;
3789;SDS011;1910;49.042;9.028;2022-11-20T06:01:47;6.60;;;2.93;;
3789;SDS011;1910;49.042;9.028;2022-11-20T06:04:12;1.85;;;1.70;;
3789;SDS011;1910;49.042;9.028;2022-11-20T06:06:38;6.17;;;2.73;;
3789;SDS011;1910;49.042;9.028;2022-11-20T06:09:05;3.78;;;2.90;;
3789;SDS011;1910;49.042;9.028;2022-11-20T06:11:30;3.00;;;2.53;;
3789;SDS011;1910;49.042;9.028;2022-11-20T06:13:56;4.43;;;3.03;;
3789;SDS011;1910;49.042;9.028;2022-11-20T06:16:22;3.47;;;2.33;;
3789;SDS011;1910;49.042;9.028;2022-11-20T06:18:48;3.00;;;2.40;;
3789;SDS011;1910;49.042;9.028;2022-11-20T06:21:15;3.90;;;2.53;;
3789;SDS011;1910;49.042;9.028;2022-11-20T06:23:45;5.75;;;2.40;;
3789;SDS011;1910;49.042;9.028;2022-11-20T06:26:12;3.47;;;2.42;;
3789;SDS011;1910;49.042;9.028;2022-11-20T06:28:39;4.60;;;2.38;;
3789;SDS011;1910;49.042;9.028;2022-11-20T06:31:05;3.70;;;2.80;;
3789;SDS011;1910;49.042;9.028;2022-11-20T06:33:32;3.15;;;2.30;;
3789;SDS011;1910;49.042;9.028;2022-11-20T06:35:58;2.80;;;2.60;;
3789;SDS011;1910;49.042;9.028;2022-11-20T06:38:25;4.45;;;2.50;;
3789;SDS011;1910;49.042;9.028;2022-11-20T06:40:51;6.38;;;2.30;;
3789;SDS011;1910;49.042;9.028;2022-11-20T06:43:17;3.13;;;2.20;;
3789;SDS011;1910;49.042;9.028;2022-11-20T06:45:43;4.70;;;2.20;;
3789;SDS011;1910;49.042;9.028;2022-11-20T06:48:09;3.20;;;2.60;;
3789;SDS011;1910;49.042;9.028;2022-11-20T06:50:38;4.05;;;1.98;;
3789;SDS011;1910;49.042;9.028;2022-11-20T06:53:04;3.22;;;1.90;;
3789;SDS011;1910;49.042;9.028;2022-11-20T06:55:30;2.40;;;1.90;;
3789;SDS011;1910;49.042;9.028;2022-11-20T06:57:56;1.75;;;1.65;;
3789;SDS011;1910;49.042;9.028;2022-11-20T07:00:22;4.43;;;2.30;;
3789;SDS011;1910;49.042;9.028;2022-11-20T07:02:48;5.63;;;2.40;;
3789;SDS011;1910;49.042;9.028;2022-11-20T07:05:14;2.97;;;2.70;;
3789;SDS011;1910;49.042;9.028;2022-11-20T07:07:40;3.03;;;2.03;;
3789;SDS011;1910;49.042;9.028;2022-11-20T07:10:06;2.30;;;1.70;;
3789;SDS011;1910;49.042;9.028;2022-11-20T07:12:32;5.45;;;1.90;;
3789;SDS011;1910;49.042;9.028;2022-11-20T07:14:58;2.33;;;1.80;;
3789;SDS011;1910;49.042;9.028;2022-11-20T07:17:24;2.40;;;1.80;;
3789;SDS011;1910;49.042;9.028;2022-11-20T07:19:53;1.75;;;1.50;;
3789;SDS011;1910;49.042;9.028;2022-11-20T07:22:18;5.17;;;1.97;;
3789;SDS011;1910;49.042;9.028;2022-11-20T07:28:08;6.00;;;1.80;;
3789;SDS011;1910;49.042;9.028;2022-11-20T07:30:35;2.03;;;1.50;;
3789;SDS011;1910;49.042;9.028;2022-11-20T07:33:09;2.20;;;1.52;;
3789;SDS011;1910;49.042;9.028;2022-11-20T07:35:35;3.78;;;2.00;;
3789;SDS011;1910;49.042;9.028;2022-11-20T07:38:01;3.70;;;2.00;;
3789;SDS011;1910;49.042;9.028;2022-11-20T07:40:29;4.00;;;1.57;;
3789;SDS011;1910;49.042;9.028;2022-11-20T07:42:54;2.95;;;1.30;;
3789;SDS011;1910;49.042;9.028;2022-11-20T07:45:21;3.17;;;1.75;;
3789;SDS011;1910;49.042;9.028;2022-11-20T07:47:48;2.70;;;1.75;;
3789;SDS011;1910;49.042;9.028;2022-11-20T07:50:14;3.33;;;2.13;;
3789;SDS011;1910;49.042;9.028;2022-11-20T07:52:40;2.50;;;1.95;;
3789;SDS011;1910;49.042;9.028;2022-11-20T07:55:06;3.67;;;1.30;;
3789;SDS011;1910;49.042;9.028;2022-11-20T07:57:32;2.60;;;1.80;;
3789;SDS011;1910;49.042;9.028;2022-11-20T07:59:58;4.30;;;1.90;;
3789;SDS011;1910;49.042;9.028;2022-11-20T08:02:24;2.43;;;2.07;;
3789;SDS011;1910;49.042;9.028;2022-11-20T08:04:50;2.27;;;1.57;;
3789;SDS011;1910;49.042;9.028;2022-11-20T08:07:16;2.90;;;1.67;;
3789;SDS011;1910;49.042;9.028;2022-11-20T08:09:42;1.50;;;1.40;;
3789;SDS011;1910;49.042;9.028;2022-11-20T08:12:09;5.50;;;1.95;;
3789;SDS011;1910;49.042;9.028;2022-11-20T08:15:01;2.88;;;1.80;;
3789;SDS011;1910;49.042;9.028;2022-11-20T08:17:27;2.05;;;1.23;;
3789;SDS011;1910;49.042;9.028;2022-11-20T08:19:53;4.90;;;1.60;;
3789;SDS011;1910;49.042;9.028;2022-11-20T08:22:19;1.50;;;1.40;;
3789;SDS011;1910;49.042;9.028;2022-11-20T08:24:45;2.30;;;1.80;;
3789;SDS011;1910;49.042;9.028;2022-11-20T08:27:11;5.00;;;2.17;;
3789;SDS011;1910;49.042;9.028;2022-11-20T08:29:37;1.73;;;1.63;;
3789;SDS011;1910;49.042;9.028;2022-11-20T08:32:03;2.70;;;1.73;;
3789;SDS011;1910;49.042;9.028;2022-11-20T08:34:29;2.53;;;2.33;;
3789;SDS011;1910;49.042;9.028;2022-11-20T08:36:55;2.30;;;1.67;;
3789;SDS011;1910;49.042;9.028;2022-11-20T08:39:21;2.63;;;1.43;;
3789;SDS011;1910;49.042;9.028;2022-11-20T08:41:47;2.63;;;2.20;;
3789;SDS011;1910;49.042;9.028;2022-11-20T08:44:13;4.67;;;2.27;;
3789;SDS011;1910;49.042;9.028;2022-11-20T08:46:40;3.40;;;2.33;;
3789;SDS011;1910;49.042;9.028;2022-11-20T08:49:10;2.40;;;1.90;;
3789;SDS011;1910;49.042;9.028;2022-11-20T08:51:37;2.80;;;2.13;;
3789;SDS011;1910;49.042;9.028;2022-11-20T08:54:04;6.82;;;3.42;;
3789;SDS011;1910;49.042;9.028;2022-11-20T08:56:30;7.95;;;3.05;;
3789;SDS011;1910;49.042;9.028;2022-11-20T08:58:56;9.02;;;3.95;;
3789;SDS011;1910;49.042;9.028;2022-11-20T09:01:24;2.20;;;2.00;;
3789;SDS011;1910;49.042;9.028;2022-11-20T09:03:50;3.83;;;2.73;;
3789;SDS011;1910;49.042;9.028;2022-11-20T09:06:16;3.63;;;2.70;;
3789;SDS011;1910;49.042;9.028;2022-11-20T09:08:42;3.70;;;2.30;;
3789;SDS011;1910;49.042;9.028;2022-11-20T09:11:08;2.85;;;1.67;;
3789;SDS011;1910;49.042;9.028;2022-11-20T09:13:34;3.03;;;2.07;;
3789;SDS011;1910;49.042;9.028;2022-11-20T09:16:05;2.42;;;2.00;;
3789;SDS011;1910;49.042;9.028;2022-11-20T09:18:32;5.65;;;3.50;;
3789;SDS011;1910;49.042;9.028;2022-11-20T09:21:01;4.40;;;3.20;;
3789;SDS011;1910;49.042;9.028;2022-11-20T09:23:30;3.00;;;2.70;;
3789;SDS011;1910;49.042;9.028;2022-11-20T09:25:57;2.67;;;2.17;;
3789;SDS011;1910;49.042;9.028;2022-11-20T09:28:25;5.60;;;4.05;;
3789;SDS011;1910;49.042;9.028;2022-11-20T09:30:50;4.97;;;3.00;;
3789;SDS011;1910;49.042;9.028;2022-11-20T09:33:17;3.77;;;2.90;;
3789;SDS011;1910;49.042;9.028;2022-11-20T09:35:43;4.38;;;3.33;;
3789;SDS011;1910;49.042;9.028;2022-11-20T09:38:09;4.50;;;2.75;;
3789;SDS011;1910;49.042;9.028;2022-11-20T09:40:37;4.43;;;3.80;;
3789;SDS011;1910;49.042;9.028;2022-11-20T09:54:30;4.32;;;3.60;;
3789;SDS011;1910;49.042;9.028;2022-11-20T09:57:00;3.90;;;3.38;;
3789;SDS011;1910;49.042;9.028;2022-11-20T09:59:33;4.30;;;2.72;;
3789;SDS011;1910;49.042;9.028;2022-11-20T10:01:59;3.97;;;3.10;;
3789;SDS011;1910;49.042;9.028;2022-11-20T10:04:27;3.75;;;3.00;;
3789;SDS011;1910;49.042;9.028;2022-11-20T10:09:35;2.90;;;2.60;;
3789;SDS011;1910;49.042;9.028;2022-11-20T10:23:24;3.42;;;2.90;;
3789;SDS011;1910;49.042;9.028;2022-11-20T10:31:33;3.95;;;2.90;;
3789;SDS011;1910;49.042;9.028;2022-11-20T10:34:03;6.15;;;2.58;;
3789;SDS011;1910;49.042;9.028;2022-11-20T10:36:51;4.90;;;2.75;;
3789;SDS011;1910;49.042;9.028;2022-11-20T10:39:30;2.97;;;2.40;;
3789;SDS011;1910;49.042;9.028;2022-11-20T10:42:08;3.40;;;3.10;;
3789;SDS011;1910;49.042;9.028;2022-11-20T10:44:39;5.60;;;2.47;;
3789;SDS011;1910;49.042;9.028;2022-11-20T10:47:28;5.50;;;2.83;;
3789;SDS011;1910;49.042;9.028;2022-11-20T10:49:57;8.52;;;2.83;;
3789;SDS011;1910;49.042;9.028;2022-11-20T11:00:23;2.10;;;1.90;;
3789;SDS011;1910;49.042;9.028;2022-11-20T11:02:50;2.22;;;2.03;;
3789;SDS011;1910;49.042;9.028;2022-11-20T11:07:44;5.90;;;3.47;;
3789;SDS011;1910;49.042;9.028;2022-11-20T11:12:44;7.28;;;3.58;;
3789;SDS011;1910;49.042;9.028;2022-11-20T11:17:50;8.20;;;4.28;;
3789;SDS011;1910;49.042;9.028;2022-11-20T11:20:17;8.07;;;5.50;;
3789;SDS011;1910;49.042;9.028;2022-11-20T11:22:49;5.75;;;5.07;;
3789;SDS011;1910;49.042;9.028;2022-11-20T11:25:21;4.60;;;3.45;;
3789;SDS011;1910;49.042;9.028;2022-11-20T11:27:48;7.20;;;5.22;;
3789;SDS011;1910;49.042;9.028;2022-11-20T11:30:16;7.07;;;5.43;;
3789;SDS011;1910;49.042;9.028;2022-11-20T11:32:43;8.25;;;4.13;;
3789;SDS011;1910;49.042;9.028;2022-11-20T11:35:18;5.38;;;3.75;;
3789;SDS011;1910;49.042;9.028;2022-11-20T11:37:46;16.85;;;4.32;;
3789;SDS011;1910;49.042;9.028;2022-11-20T11:40:13;8.98;;;3.30;;
3789;SDS011;1910;49.042;9.028;2022-11-20T11:42:43;11.13;;;4.13;;
3789;SDS011;1910;49.042;9.028;2022-11-20T11:45:15;4.43;;;3.65;;
3789;SDS011;1910;49.042;9.028;2022-11-20T11:47:45;5.05;;;3.35;;
3789;SDS011;1910;49.042;9.028;2022-11-20T11:52:47;6.05;;;4.00;;
3789;SDS011;1910;49.042;9.028;2022-11-20T11:58:16;7.85;;;5.20;;
3789;SDS011;1910;49.042;9.028;2022-11-20T12:01:32;6.85;;;3.63;;
3789;SDS011;1910;49.042;9.028;2022-11-20T12:04:04;9.65;;;4.45;;
3789;SDS011;1910;49.042;9.028;2022-11-20T12:06:58;3.63;;;3.28;;
3789;SDS011;1910;49.042;9.028;2022-11-20T12:09:35;8.45;;;2.80;;
3789;SDS011;1910;49.042;9.028;2022-11-20T12:12:08;6.82;;;3.63;;
3789;SDS011;1910;49.042;9.028;2022-11-20T12:14:42;10.68;;;3.47;;
3789;SDS011;1910;49.042;9.028;2022-11-20T12:17:11;5.60;;;3.15;;
3789;SDS011;1910;49.042;9.028;2022-11-20T12:19:39;12.30;;;4.15;;
3789;SDS011;1910;49.042;9.028;2022-11-20T12:24:42;8.03;;;2.60;;
3789;SDS011;1910;49.042;9.028;2022-11-20T12:30:17;3.63;;;2.10;;
3789;SDS011;1910;49.042;9.028;2022-11-20T12:45:03;4.55;;;2.85;;
3789;SDS011;1910;49.042;9.028;2022-11-20T12:53:03;6.63;;;2.05;;
3789;SDS011;1910;49.042;9.028;2022-11-20T12:55:42;2.35;;;1.50;;
3789;SDS011;1910;49.042;9.028;2022-11-20T12:58:48;3.10;;;1.85;;
3789;SDS011;1910;49.042;9.028;2022-11-20T13:01:38;3.28;;;1.98;;
3789;SDS011;1910;49.042;9.028;2022-11-20T13:04:24;3.22;;;2.40;;
3789;SDS011;1910;49.042;9.028;2022-11-20T13:07:04;2.83;;;2.55;;
3789;SDS011;1910;49.042;9.028;2022-11-20T13:09:33;3.25;;;2.20;;
3789;SDS011;1910;49.042;9.028;2022-11-20T13:12:10;4.80;;;2.00;;
3789;SDS011;1910;49.042;9.028;2022-11-20T13:20:22;5.07;;;2.20;;
3789;SDS011;1910;49.042;9.028;2022-11-20T13:22:49;3.25;;;2.10;;
3789;SDS011;1910;49.042;9.028;2022-11-20T13:27:56;1.42;;;1.33;;
3789;SDS011;1910;49.042;9.028;2022-11-20T13:30:28;2.80;;;2.08;;
3789;SDS011;1910;49.042;9.028;2022-11-20T13:38:01;1.80;;;1.60;;
3789;SDS011;1910;49.042;9.028;2022-11-20T13:40:51;9.20;;;2.28;;
3789;SDS011;1910;49.042;9.028;2022-11-20T13:43:35;3.00;;;0.82;;
3789;SDS011;1910;49.042;9.028;2022-11-20T13:46:05;1.42;;;1.08;;
3789;SDS011;1910;49.042;9.028;2022-11-20T13:48:33;2.58;;;1.17;;
3789;SDS011;1910;49.042;9.028;2022-11-20T13:51:40;2.67;;;1.10;;
3789;SDS011;1910;49.042;9.028;2022-11-20T13:57:13;1.98;;;1.10;;
3789;SDS011;1910;49.042;9.028;2022-11-20T14:00:03;2.47;;;1.40;;
3789;SDS011;1910;49.042;9.028;2022-11-20T14:02:40;2.28;;;1.58;;
3789;SDS011;1910;49.042;9.028;2022-11-20T14:05:11;2.05;;;1.15;;
3789;SDS011;1910;49.042;9.028;2022-11-20T14:07:47;10.27;;;1.70;;
3789;SDS011;1910;49.042;9.028;2022-11-20T14:10:21;4.75;;;1.23;;
3789;SDS011;1910;49.042;9.028;2022-11-20T14:12:48;5.65;;;1.52;;
3789;SDS011;1910;49.042;9.028;2022-11-20T14:15:32;4.18;;;1.23;;
3789;SDS011;1910;49.042;9.028;2022-11-20T14:18:00;7.43;;;1.60;;
3789;SDS011;1910;49.042;9.028;2022-11-20T14:20:41;8.30;;;3.05;;
3789;SDS011;1910;49.042;9.028;2022-11-20T14:23:09;2.13;;;1.42;;
3789;SDS011;1910;49.042;9.028;2022-11-20T14:25:35;5.63;;;1.60;;
3789;SDS011;1910;49.042;9.028;2022-11-20T14:28:02;9.18;;;2.92;;
3789;SDS011;1910;49.042;9.028;2022-11-20T14:33:12;2.72;;;1.27;;
3789;SDS011;1910;49.042;9.028;2022-11-20T14:35:47;2.15;;;1.67;;
3789;SDS011;1910;49.042;9.028;2022-11-20T14:38:15;1.60;;;1.20;;
3789;SDS011;1910;49.042;9.028;2022-11-20T14:40:43;4.70;;;1.35;;
3789;SDS011;1910;49.042;9.028;2022-11-20T14:43:17;4.40;;;1.73;;
3789;SDS011;1910;49.042;9.028;2022-11-20T14:48:28;3.65;;;2.00;;
3789;SDS011;1910;49.042;9.028;2022-11-20T14:50:58;3.95;;;2.05;;
3789;SDS011;1910;49.042;9.028;2022-11-20T14:53:25;2.22;;;1.13;;
3789;SDS011;1910;49.042;9.028;2022-11-20T14:55:55;3.38;;;2.20;;
3789;SDS011;1910;49.042;9.028;2022-11-20T14:58:26;1.60;;;1.30;;
3789;SDS011;1910;49.042;9.028;2022-11-20T15:00:58;5.00;;;1.50;;
3789;SDS011;1910;49.042;9.028;2022-11-20T15:03:35;6.80;;;1.50;;
3789;SDS011;1910;49.042;9.028;2022-11-20T15:06:02;24.70;;;9.80;;
3789;SDS011;1910;49.042;9.028;2022-11-20T15:08:28;8.75;;;3.88;;
3789;SDS011;1910;49.042;9.028;2022-11-20T15:10:54;8.02;;;3.05;;
3789;SDS011;1910;49.042;9.028;2022-11-20T15:13:34;4.80;;;1.75;;
3789;SDS011;1910;49.042;9.028;2022-11-20T15:16:17;6.10;;;3.72;;
3789;SDS011;1910;49.042;9.028;2022-11-20T15:18:49;3.28;;;1.60;;
3789;SDS011;1910;49.042;9.028;2022-11-20T15:21:16;4.15;;;1.85;;
3789;SDS011;1910;49.042;9.028;2022-11-20T15:23:46;2.50;;;1.45;;
3789;SDS011;1910;49.042;9.028;2022-11-20T15:26:13;4.35;;;2.55;;
3789;SDS011;1910;49.042;9.028;2022-11-20T15:28:43;7.88;;;2.75;;
3789;SDS011;1910;49.042;9.028;2022-11-20T15:31:14;3.40;;;1.92;;
3789;SDS011;1910;49.042;9.028;2022-11-20T15:33:43;4.40;;;2.65;;
3789;SDS011;1910;49.042;9.028;2022-11-20T15:36:08;2.22;;;2.03;;
3789;SDS011;1910;49.042;9.028;2022-11-20T15:38:36;5.57;;;2.92;;
3789;SDS011;1910;49.042;9.028;2022-11-20T15:41:02;2.65;;;1.70;;
3789;SDS011;1910;49.042;9.028;2022-11-20T15:43:28;1.30;;;1.20;;
3789;SDS011;1910;49.042;9.028;2022-11-20T15:46:05;3.67;;;1.55;;
3789;SDS011;1910;49.042;9.028;2022-11-20T15:53:39;4.20;;;2.00;;
3789;SDS011;1910;49.042;9.028;2022-11-20T15:56:11;10.95;;;1.90;;
3789;SDS011;1910;49.042;9.028;2022-11-20T15:58:38;1.98;;;1.35;;
3789;SDS011;1910;49.042;9.028;2022-11-20T16:01:04;3.80;;;1.58;;
3789;SDS011;1910;49.042;9.028;2022-11-20T16:03:29;1.53;;;1.20;;
3789;SDS011;1910;49.042;9.028;2022-11-20T16:05:55;4.20;;;1.33;;
3789;SDS011;1910;49.042;9.028;2022-11-20T16:08:21;4.87;;;1.63;;
3789;SDS011;1910;49.042;9.028;2022-11-20T16:10:47;3.20;;;1.58;;
3789;SDS011;1910;49.042;9.028;2022-11-20T16:13:13;2.33;;;2.13;;
3789;SDS011;1910;49.042;9.028;2022-11-20T16:15:59;5.10;;;1.85;;
3789;SDS011;1910;49.042;9.028;2022-11-20T16:18:29;2.80;;;1.50;;
3789;SDS011;1910;49.042;9.028;2022-11-20T16:20:56;4.03;;;1.45;;
3789;SDS011;1910;49.042;9.028;2022-11-20T16:23:24;5.05;;;2.75;;
3789;SDS011;1910;49.042;9.028;2022-11-20T16:25:49;1.33;;;0.80;;
3789;SDS011;1910;49.042;9.028;2022-11-20T16:28:16;3.00;;;1.43;;
3789;SDS011;1910;49.042;9.028;2022-11-20T16:30:42;5.75;;;1.30;;
3789;SDS011;1910;49.042;9.028;2022-11-20T16:33:11;2.60;;;1.30;;
3789;SDS011;1910;49.042;9.028;2022-11-20T16:35:38;4.72;;;1.83;;
3789;SDS011;1910;49.042;9.028;2022-11-20T16:38:04;3.25;;;1.30;;
3789;SDS011;1910;49.042;9.028;2022-11-20T16:40:31;8.63;;;1.80;;
3789;SDS011;1910;49.042;9.028;2022-11-20T16:42:57;5.40;;;1.38;;
3789;SDS011;1910;49.042;9.028;2022-11-20T16:45:32;2.08;;;1.80;;
3789;SDS011;1910;49.042;9.028;2022-11-20T16:47:57;5.35;;;1.40;;
3789;SDS011;1910;49.042;9.028;2022-11-20T16:50:23;4.68;;;1.58;;
3789;SDS011;1910;49.042;9.028;2022-11-20T16:52:50;5.30;;;1.80;;
3789;SDS011;1910;49.042;9.028;2022-11-20T16:55:17;5.53;;;2.95;;
3789;SDS011;1910;49.042;9.028;2022-11-20T16:57:42;5.60;;;2.58;;
3789;SDS011;1910;49.042;9.028;2022-11-20T17:00:08;6.20;;;1.30;;
3789;SDS011;1910;49.042;9.028;2022-11-20T17:02:34;2.13;;;1.15;;
3789;SDS011;1910;49.042;9.028;2022-11-20T17:05:01;3.25;;;1.50;;
3789;SDS011;1910;49.042;9.028;2022-11-20T17:07:27;2.70;;;1.47;;
3789;SDS011;1910;49.042;9.028;2022-11-20T17:09:53;3.60;;;2.70;;
3789;SDS011;1910;49.042;9.028;2022-11-20T17:12:19;3.00;;;1.17;;
3789;SDS011;1910;49.042;9.028;2022-11-20T17:14:45;3.70;;;1.50;;
3789;SDS011;1910;49.042;9.028;2022-11-20T17:17:11;1.57;;;1.30;;
3789;SDS011;1910;49.042;9.028;2022-11-20T17:19:37;1.20;;;1.10;;
3789;SDS011;1910;49.042;9.028;2022-11-20T17:22:02;10.20;;;1.93;;
3789;SDS011;1910;49.042;9.028;2022-11-20T17:26:58;3.90;;;1.30;;